Time;durP1;ratioP1;P1;durP2;ratioP2;P2;SDS_P1;SDS_P2;PMS_P1;PMS_P2;Temp;Humidity;BMP_temperature;BMP_pressure;BME280_temperature;BME280_humidity;BME280_pressure;Samples;Min_cycle;Max_cycle;Signal;HPM_P1;HPM_P2
2022/07/26 04:46:58;;;;;;;1.17;0.55;;;;;;;;;;5081645;27;20853;-72
2022/07/26 04:49:27;;;;;;;1.20;0.52;;;;;;;;;;5046907;28;20138;-72
2022/07/26 04:51:55;;;;;;;0.47;0.40;;;;;;;;;;5043815;28;20053;-72
2022/07/26 04:54:26;;;;;;;0.40;0.40;;;;;;;;;;5039567;28;20497;-72
2022/07/26 04:56:55;;;;;;;0.57;0.47;;;;;;;;;;5032755;28;20072;-72
2022/07/26 04:59:23;;;;;;;2.25;0.65;;;;;;;;;;5022402;28;20133;-72
2022/07/26 05:01:51;;;;;;;2.72;1.02;;;;;;;;;;5019196;28;20069;-72
2022/07/26 05:04:21;;;;;;;0.55;0.43;;;;;;;;;;5026556;28;20077;-72
2022/07/26 05:06:50;;;;;;;0.75;0.60;;;;;;;;;;5021081;28;20064;-71
2022/07/26 05:09:18;;;;;;;0.73;0.50;;;;;;;;;;5010489;28;20116;-73
2022/07/26 05:11:46;;;;;;;1.23;0.43;;;;;;;;;;5016758;28;20042;-73
2022/07/26 05:14:15;;;;;;;1.30;0.77;;;;;;;;;;5020036;28;20153;-71
2022/07/26 05:16:43;;;;;;;0.55;0.52;;;;;;;;;;5025711;28;20050;-71
2022/07/26 05:19:13;;;;;;;0.57;0.38;;;;;;;;;;5025655;28;20482;-71
2022/07/26 05:21:43;;;;;;;0.63;0.60;;;;;;;;;;5020477;28;22505;-72
2022/07/26 05:24:11;;;;;;;1.08;0.60;;;;;;;;;;5016734;28;20053;-72
2022/07/26 05:26:40;;;;;;;0.45;0.38;;;;;;;;;;5024662;28;20061;-71
2022/07/26 05:29:08;;;;;;;0.95;0.68;;;;;;;;;;5021425;28;20104;-71
2022/07/26 05:31:36;;;;;;;1.13;0.60;;;;;;;;;;5008085;28;20088;-72
2022/07/26 05:34:05;;;;;;;0.85;0.63;;;;;;;;;;5015331;28;20050;-74
2022/07/26 05:36:34;;;;;;;0.47;0.40;;;;;;;;;;5016936;28;20053;-72
2022/07/26 05:39:04;;;;;;;1.02;0.73;;;;;;;;;;5022292;28;20125;-72
2022/07/26 05:41:32;;;;;;;0.28;0.28;;;;;;;;;;5022051;28;20145;-72
2022/07/26 05:44:02;;;;;;;3.92;0.93;;;;;;;;;;5013904;28;20056;-73
2022/07/26 05:46:30;;;;;;;0.50;0.43;;;;;;;;;;5020528;28;20137;-73
2022/07/26 05:48:58;;;;;;;1.17;0.80;;;;;;;;;;5023544;28;20096;-76
2022/07/26 05:51:29;;;;;;;0.60;0.40;;;;;;;;;;5024697;28;20044;-74
2022/07/26 05:53:57;;;;;;;1.08;0.85;;;;;;;;;;5020521;28;20104;-72
2022/07/26 05:56:27;;;;;;;1.13;1.02;;;;;;;;;;5017418;28;20132;-74
2022/07/26 05:58:55;;;;;;;1.33;0.40;;;;;;;;;;5011861;28;20085;-74
2022/07/26 06:01:24;;;;;;;0.45;0.35;;;;;;;;;;5010258;28;20120;-72
2022/07/26 06:03:53;;;;;;;1.48;0.40;;;;;;;;;;5008615;28;20045;-74
2022/07/26 06:06:22;;;;;;;0.52;0.52;;;;;;;;;;5011188;28;20085;-73
2022/07/26 06:08:50;;;;;;;2.00;0.63;;;;;;;;;;5011074;28;20092;-74
2022/07/26 06:11:19;;;;;;;0.20;0.20;;;;;;;;;;5012315;28;20050;-74
2022/07/26 06:13:49;;;;;;;1.13;0.60;;;;;;;;;;5011954;28;20056;-74
2022/07/26 06:16:23;;;;;;;2.80;0.80;;;;;;;;;;5009708;28;20506;-74
2022/07/26 06:18:52;;;;;;;0.75;0.57;;;;;;;;;;5000870;28;21165;-74
2022/07/26 06:21:20;;;;;;;3.95;0.73;;;;;;;;;;5010928;28;20468;-74
2022/07/26 06:23:50;;;;;;;0.85;0.63;;;;;;;;;;5011756;28;20452;-74
2022/07/26 06:26:18;;;;;;;0.90;0.60;;;;;;;;;;5012239;28;20127;-73
2022/07/26 06:28:49;;;;;;;0.90;0.63;;;;;;;;;;5012292;28;20129;-74
2022/07/26 06:31:19;;;;;;;1.15;0.75;;;;;;;;;;5012516;28;20085;-75
2022/07/26 06:33:48;;;;;;;0.70;0.52;;;;;;;;;;5006711;28;20042;-74
2022/07/26 06:36:16;;;;;;;1.13;0.65;;;;;;;;;;5008892;28;20445;-75
2022/07/26 06:38:45;;;;;;;0.50;0.35;;;;;;;;;;5012388;28;20104;-79
2022/07/26 06:41:16;;;;;;;1.80;0.95;;;;;;;;;;5012502;28;20049;-76
2022/07/26 06:43:44;;;;;;;0.80;0.57;;;;;;;;;;5012367;28;20099;-75
2022/07/26 06:46:12;;;;;;;0.98;0.63;;;;;;;;;;5025683;28;20088;-75
2022/07/26 06:48:42;;;;;;;1.95;0.85;;;;;;;;;;5037025;28;20095;-75
2022/07/26 06:51:19;;;;;;;1.00;0.75;;;;;;;;;;5037949;28;20448;-73
2022/07/26 06:53:48;;;;;;;0.30;0.30;;;;;;;;;;5035349;28;20049;-74
2022/07/26 06:56:17;;;;;;;0.30;0.30;;;;;;;;;;5030132;28;20497;-74
2022/07/26 06:58:45;;;;;;;0.65;0.50;;;;;;;;;;5026355;28;20132;-76
2022/07/26 07:01:14;;;;;;;0.98;0.43;;;;;;;;;;5021643;28;20140;-73
2022/07/26 07:04:04;;;;;;;3.08;0.85;;;;;;;;;;5026080;28;20038;-71
2022/07/26 07:06:33;;;;;;;1.15;0.70;;;;;;;;;;5023649;28;20053;-71
2022/07/26 07:09:01;;;;;;;1.98;1.10;;;;;;;;;;5029969;28;20111;-71
2022/07/26 07:11:30;;;;;;;1.80;1.20;;;;;;;;;;5031454;28;20056;-74
2022/07/26 07:14:01;;;;;;;1.23;0.82;;;;;;;;;;5028708;28;20049;-71
2022/07/26 07:16:30;;;;;;;0.80;0.60;;;;;;;;;;5028206;28;20057;-72
2022/07/26 07:18:58;;;;;;;2.28;0.55;;;;;;;;;;5023066;28;20045;-71
2022/07/26 07:21:28;;;;;;;0.75;0.75;;;;;;;;;;5029947;28;20140;-71
2022/07/26 07:23:57;;;;;;;1.70;0.98;;;;;;;;;;5026846;28;20085;-72
2022/07/26 07:26:26;;;;;;;2.17;0.77;;;;;;;;;;5023910;28;20115;-72
2022/07/26 07:28:54;;;;;;;3.17;0.63;;;;;;;;;;5025627;28;20436;-71
2022/07/26 07:31:23;;;;;;;0.55;0.55;;;;;;;;;;5030349;28;20642;-71
2022/07/26 07:33:58;;;;;;;1.30;0.77;;;;;;;;;;5027696;28;20046;-71
2022/07/26 07:36:26;;;;;;;0.55;0.55;;;;;;;;;;5018335;28;20234;-71
2022/07/26 07:38:57;;;;;;;3.83;1.00;;;;;;;;;;5006447;28;20057;-73
2022/07/26 07:41:33;;;;;;;2.00;0.65;;;;;;;;;;5014852;28;20073;-72
2022/07/26 07:44:01;;;;;;;0.80;0.40;;;;;;;;;;5010393;28;20050;-72
2022/07/26 07:46:30;;;;;;;0.75;0.45;;;;;;;;;;5016049;28;20559;-71
2022/07/26 07:48:59;;;;;;;0.65;0.43;;;;;;;;;;5016064;28;20491;-72
2022/07/26 07:51:28;;;;;;;0.75;0.50;;;;;;;;;;5008728;28;20046;-72
2022/07/26 07:53:58;;;;;;;0.50;0.50;;;;;;;;;;5008703;28;20042;-72
2022/07/26 07:56:32;;;;;;;;;;;;;;;;;;5004094;28;20088;-72
2022/07/26 07:59:00;;;;;;;0.45;0.40;;;;;;;;;;5008720;28;19925;-72
2022/07/26 08:01:29;;;;;;;0.55;0.52;;;;;;;;;;4995347;28;20050;-72
2022/07/26 08:04:07;;;;;;;0.52;0.50;;;;;;;;;;5009246;28;20048;-72
2022/07/26 08:06:36;;;;;;;2.05;0.77;;;;;;;;;;5009091;28;20061;-72
2022/07/26 08:09:10;;;;;;;0.50;0.50;;;;;;;;;;5008985;28;20046;-72
2022/07/26 08:11:40;;;;;;;0.65;0.50;;;;;;;;;;5010470;28;20053;-72
2022/07/26 08:14:10;;;;;;;1.17;0.75;;;;;;;;;;5003266;28;20428;-72
2022/07/26 08:16:40;;;;;;;0.80;0.50;;;;;;;;;;5003468;28;20500;-72
2022/07/26 08:19:09;;;;;;;1.30;0.47;;;;;;;;;;5007356;28;20120;-72
2022/07/26 08:21:38;;;;;;;1.60;0.40;;;;;;;;;;5005105;28;20038;-72
2022/07/26 08:24:07;;;;;;;0.65;0.52;;;;;;;;;;5006215;28;20042;-72
2022/07/26 08:26:37;;;;;;;0.60;0.60;;;;;;;;;;5006552;28;20413;-71
2022/07/26 08:29:05;;;;;;;1.63;0.80;;;;;;;;;;5010439;28;20392;-71
2022/07/26 08:31:34;;;;;;;0.75;0.45;;;;;;;;;;5002818;28;20136;-71
2022/07/26 08:34:03;;;;;;;0.60;0.50;;;;;;;;;;5008546;28;20049;-72
2022/07/26 08:36:31;;;;;;;1.27;0.60;;;;;;;;;;5014277;28;20053;-73
2022/07/26 08:39:00;;;;;;;0.47;0.40;;;;;;;;;;5028439;28;20037;-73
2022/07/26 08:41:29;;;;;;;0.43;0.43;;;;;;;;;;5026765;28;20046;-72
2022/07/26 08:44:06;;;;;;;0.20;0.20;;;;;;;;;;5029418;28;20048;-71
2022/07/26 08:46:36;;;;;;;0.50;0.50;;;;;;;;;;5024594;28;20061;-72
2022/07/26 08:49:05;;;;;;;0.30;0.30;;;;;;;;;;5029407;28;20129;-72
2022/07/26 08:51:34;;;;;;;0.77;0.50;;;;;;;;;;5027496;28;20048;-71
2022/07/26 08:54:03;;;;;;;0.65;0.50;;;;;;;;;;5029061;28;20452;-72
2022/07/26 08:56:34;;;;;;;0.32;0.32;;;;;;;;;;5022642;28;20479;-73
2022/07/26 08:59:12;;;;;;;1.05;0.57;;;;;;;;;;5025671;28;20050;-72
2022/07/26 09:01:52;;;;;;;1.48;0.50;;;;;;;;;;5026707;28;20041;-73
2022/07/26 09:04:21;;;;;;;0.63;0.38;;;;;;;;;;5028844;28;20069;-72
2022/07/26 09:07:11;;;;;;;1.33;0.63;;;;;;;;;;5023090;28;20782;-72
2022/07/26 09:09:40;;;;;;;1.17;0.57;;;;;;;;;;5025517;28;20272;-72
2022/07/26 09:12:14;;;;;;;0.15;0.15;;;;;;;;;;5026046;28;20057;-74
2022/07/26 09:14:46;;;;;;;0.50;0.35;;;;;;;;;;5030457;28;20049;-72
2022/07/26 09:17:15;;;;;;;1.00;0.57;;;;;;;;;;5029040;28;20507;-73
2022/07/26 09:19:44;;;;;;;0.80;0.50;;;;;;;;;;5020679;28;20049;-72
2022/07/26 09:22:13;;;;;;;1.80;1.15;;;;;;;;;;5026928;28;20123;-73
2022/07/26 09:24:42;;;;;;;0.65;0.47;;;;;;;;;;5027609;28;20423;-72
2022/07/26 09:27:13;;;;;;;0.22;0.10;;;;;;;;;;5011179;28;20053;-71
2022/07/26 09:29:47;;;;;;;1.73;0.63;;;;;;;;;;5003439;28;20057;-72
2022/07/26 09:32:17;;;;;;;1.17;0.60;;;;;;;;;;5005827;28;20463;-74
2022/07/26 09:34:47;;;;;;;0.38;0.38;;;;;;;;;;5013633;28;20045;-73
2022/07/26 09:37:34;;;;;;;0.95;0.28;;;;;;;;;;5010368;28;20704;-73
2022/07/26 09:40:04;;;;;;;0.28;0.28;;;;;;;;;;5012144;28;20054;-73
2022/07/26 09:42:33;;;;;;;0.95;0.40;;;;;;;;;;5006851;28;20527;-73
2022/07/26 09:45:03;;;;;;;0.63;0.32;;;;;;;;;;5013156;28;20137;-73
2022/07/26 09:47:38;;;;;;;0.30;0.20;;;;;;;;;;5026741;28;20060;-72
2022/07/26 09:50:11;;;;;;;0.30;0.30;;;;;;;;;;5028562;28;20080;-73
2022/07/26 09:52:39;;;;;;;0.40;0.28;;;;;;;;;;5028979;28;20084;-72
2022/07/26 09:55:09;;;;;;;1.45;1.10;;;;;;;;;;5031037;28;20115;-72
2022/07/26 09:57:37;;;;;;;0.22;0.20;;;;;;;;;;5029536;28;20119;-73
2022/07/26 10:00:09;;;;;;;0.65;0.50;;;;;;;;;;5030032;28;20042;-73
2022/07/26 10:02:38;;;;;;;0.10;0.10;;;;;;;;;;5028167;28;20049;-72
2022/07/26 10:05:07;;;;;;;0.43;0.32;;;;;;;;;;5032428;28;20086;-71
2022/07/26 10:07:35;;;;;;;0.17;0.17;;;;;;;;;;5031624;28;20119;-71
2022/07/26 10:10:07;;;;;;;0.52;0.52;;;;;;;;;;5031615;28;20053;-73
2022/07/26 10:12:36;;;;;;;1.13;0.55;;;;;;;;;;5024803;28;20049;-73
2022/07/26 10:15:05;;;;;;;0.20;0.20;;;;;;;;;;5028030;28;20072;-75
2022/07/26 10:17:42;;;;;;;2.80;0.50;;;;;;;;;;5030923;28;20160;-76
2022/07/26 10:20:11;;;;;;;0.65;0.35;;;;;;;;;;5029803;28;20068;-75
2022/07/26 10:22:47;;;;;;;2.03;0.40;;;;;;;;;;5025316;28;20041;-82
2022/07/26 10:25:34;;;;;;;0.20;0.20;;;;;;;;;;5027625;28;20057;-78
2022/07/26 10:28:03;;;;;;;0.45;0.22;;;;;;;;;;5031202;28;20073;-80
2022/07/26 10:30:39;;;;;;;0.10;0.10;;;;;;;;;;5027695;28;20073;-74
2022/07/26 10:33:14;;;;;;;0.38;0.30;;;;;;;;;;5028096;28;20458;-74
2022/07/26 10:35:42;;;;;;;0.43;0.35;;;;;;;;;;5029011;28;20715;-75
2022/07/26 10:38:11;;;;;;;0.68;0.68;;;;;;;;;;5027179;28;20490;-73
2022/07/26 10:40:55;;;;;;;0.47;0.38;;;;;;;;;;5021732;28;20088;-73
2022/07/26 10:43:24;;;;;;;0.75;0.50;;;;;;;;;;5029872;28;20042;-73
2022/07/26 10:46:26;;;;;;;0.47;0.38;;;;;;;;;;5031702;28;20045;-72
2022/07/26 10:49:02;;;;;;;0.50;0.40;;;;;;;;;;5026528;28;20088;-75
2022/07/26 10:51:32;;;;;;;0.40;0.17;;;;;;;;;;5022765;28;20084;-73
2022/07/26 10:54:01;;;;;;;1.58;0.88;;;;;;;;;;5031183;28;20069;-72
2022/07/26 10:56:29;;;;;;;1.85;0.80;;;;;;;;;;5028417;28;20103;-73
2022/07/26 10:59:01;;;;;;;0.98;0.57;;;;;;;;;;5028380;28;20092;-74
2022/07/26 11:01:36;;;;;;;0.47;0.40;;;;;;;;;;5026138;28;20916;-73
2022/07/26 11:04:07;;;;;;;2.10;1.13;;;;;;;;;;5034892;28;20510;-75
2022/07/26 11:06:36;;;;;;;0.22;0.22;;;;;;;;;;5029582;28;20046;-75
2022/07/26 11:09:11;;;;;;;1.30;0.60;;;;;;;;;;5026021;28;20048;-74
2022/07/26 11:11:39;;;;;;;;;;;;;;;;;;5023438;28;20136;-75
2022/07/26 11:14:14;;;;;;;0.52;0.40;;;;;;;;;;5027977;28;20011;-80
2022/07/26 11:16:46;;;;;;;0.17;0.17;;;;;;;;;;5024581;28;20053;-75
2022/07/26 11:19:16;;;;;;;0.60;0.50;;;;;;;;;;5024826;28;20415;-77
2022/07/26 11:21:46;;;;;;;3.60;0.50;;;;;;;;;;5031242;28;20045;-73
2022/07/26 11:24:15;;;;;;;0.52;0.50;;;;;;;;;;5025900;28;20420;-79
2022/07/26 11:26:44;;;;;;;2.72;0.55;;;;;;;;;;5028494;28;20118;-76
2022/07/26 11:29:12;;;;;;;1.13;0.52;;;;;;;;;;5029558;28;20053;-75
2022/07/26 11:31:45;;;;;;;0.50;0.50;;;;;;;;;;5028173;28;20068;-75
2022/07/26 11:34:29;;;;;;;0.45;0.32;;;;;;;;;;5024646;28;20536;-75
2022/07/26 11:36:58;;;;;;;0.60;0.30;;;;;;;;;;5031615;28;20053;-74
2022/07/26 11:39:28;;;;;;;0.77;0.52;;;;;;;;;;5027003;28;20469;-74
2022/07/26 11:41:57;;;;;;;4.60;1.10;;;;;;;;;;5029170;28;20095;-74
2022/07/26 11:44:26;;;;;;;0.47;0.40;;;;;;;;;;5029999;28;20535;-74
2022/07/26 11:46:56;;;;;;;0.63;0.50;;;;;;;;;;5024328;28;20100;-75
2022/07/26 11:49:26;;;;;;;0.57;0.40;;;;;;;;;;5030789;28;20141;-75
2022/07/26 11:52:17;;;;;;;1.58;0.52;;;;;;;;;;5025386;28;20084;-78
2022/07/26 11:54:53;;;;;;;0.40;0.40;;;;;;;;;;5026611;28;20061;-80
2022/07/26 11:57:22;;;;;;;0.50;0.40;;;;;;;;;;5025197;28;20115;-74
2022/07/26 11:59:50;;;;;;;0.93;0.40;;;;;;;;;;5028386;28;20145;-73
2022/07/26 12:02:21;;;;;;;0.52;0.50;;;;;;;;;;5028907;28;20045;-74
2022/07/26 12:04:50;;;;;;;1.40;0.40;;;;;;;;;;5027958;28;20052;-74
2022/07/26 12:07:20;;;;;;;0.63;0.30;;;;;;;;;;5018811;28;20056;-78
2022/07/26 12:09:49;;;;;;;0.32;0.32;;;;;;;;;;5023159;28;20049;-74
2022/07/26 12:12:22;;;;;;;0.70;0.43;;;;;;;;;;5023530;28;20588;-77
2022/07/26 12:14:56;;;;;;;0.93;0.40;;;;;;;;;;5026564;28;20103;-74
2022/07/26 12:17:25;;;;;;;1.38;0.50;;;;;;;;;;5028029;28;20502;-77
2022/07/26 12:20:11;;;;;;;0.22;0.20;;;;;;;;;;5021002;28;20042;-73
2022/07/26 12:22:41;;;;;;;0.63;0.40;;;;;;;;;;5018169;28;20103;-72
2022/07/26 12:25:10;;;;;;;5.38;0.52;;;;;;;;;;5025832;28;20056;-73
2022/07/26 12:27:45;;;;;;;0.50;0.43;;;;;;;;;;5024236;28;20168;-75
2022/07/26 12:30:15;;;;;;;1.13;0.30;;;;;;;;;;5021025;28;20045;-74
2022/07/26 12:32:47;;;;;;;0.80;0.40;;;;;;;;;;5024446;28;20559;-74
2022/07/26 12:35:24;;;;;;;1.10;0.50;;;;;;;;;;5019798;28;20072;-79
2022/07/26 12:37:54;;;;;;;0.52;0.35;;;;;;;;;;5023064;28;20053;-75
2022/07/26 12:40:23;;;;;;;0.70;0.50;;;;;;;;;;5020425;28;20057;-77
2022/07/26 12:42:56;;;;;;;0.57;0.40;;;;;;;;;;5023734;28;20067;-75
2022/07/26 12:45:31;;;;;;;0.50;0.50;;;;;;;;;;5024107;28;20048;-76
2022/07/26 12:48:00;;;;;;;0.40;0.20;;;;;;;;;;5018174;28;20049;-75
2022/07/26 12:50:30;;;;;;;0.73;0.50;;;;;;;;;;5023357;28;20045;-76
2022/07/26 12:53:02;;;;;;;0.65;0.55;;;;;;;;;;5021504;28;20484;-74
2022/07/26 12:55:30;;;;;;;0.93;0.50;;;;;;;;;;5024987;28;20057;-77
2022/07/26 12:57:59;;;;;;;0.68;0.45;;;;;;;;;;5026056;28;20565;-73
2022/07/26 13:00:28;;;;;;;0.75;0.73;;;;;;;;;;5015631;28;20056;-74
2022/07/26 13:02:58;;;;;;;0.43;0.43;;;;;;;;;;5020314;28;20409;-73
2022/07/26 13:05:26;;;;;;;0.73;0.68;;;;;;;;;;5015702;28;20501;-73
2022/07/26 13:07:55;;;;;;;1.38;0.93;;;;;;;;;;5027404;28;20072;-71
2022/07/26 13:10:25;;;;;;;1.23;0.52;;;;;;;;;;5029433;28;20083;-75
2022/07/26 13:13:03;;;;;;;2.13;0.77;;;;;;;;;;5022681;28;20057;-72
2022/07/26 13:15:31;;;;;;;0.57;0.40;;;;;;;;;;5029654;28;20045;-73
2022/07/26 13:18:04;;;;;;;0.40;0.20;;;;;;;;;;5016741;28;20129;-76
2022/07/26 13:20:33;;;;;;;0.55;0.40;;;;;;;;;;5033413;28;20080;-75
2022/07/26 13:23:02;;;;;;;0.45;0.30;;;;;;;;;;5020158;28;20134;-73
2022/07/26 13:25:32;;;;;;;0.57;0.30;;;;;;;;;;5025661;28;20052;-74
2022/07/26 13:28:07;;;;;;;1.02;0.77;;;;;;;;;;5024069;28;20049;-74
2022/07/26 13:30:37;;;;;;;0.47;0.47;;;;;;;;;;5026924;28;20516;-73
2022/07/26 13:33:05;;;;;;;0.45;0.38;;;;;;;;;;5025367;28;20277;-74
2022/07/26 13:35:34;;;;;;;1.27;0.77;;;;;;;;;;5023327;28;20080;-75
2022/07/26 13:38:03;;;;;;;0.40;0.40;;;;;;;;;;5021819;28;20061;-73
2022/07/26 13:40:33;;;;;;;1.02;0.70;;;;;;;;;;5020690;28;20130;-73
2022/07/26 13:43:01;;;;;;;0.55;0.40;;;;;;;;;;5027306;28;20481;-73
2022/07/26 13:45:30;;;;;;;0.43;0.25;;;;;;;;;;5026913;28;20049;-73
2022/07/26 13:47:58;;;;;;;0.45;0.25;;;;;;;;;;5028532;28;20053;-75
2022/07/26 13:50:27;;;;;;;0.57;0.38;;;;;;;;;;5023709;28;20053;-74
2022/07/26 13:52:56;;;;;;;0.88;0.47;;;;;;;;;;5024487;28;20054;-72
2022/07/26 13:55:24;;;;;;;2.58;0.38;;;;;;;;;;5020829;28;20053;-74
2022/07/26 13:57:54;;;;;;;1.65;0.70;;;;;;;;;;5025219;28;20049;-72
2022/07/26 14:00:26;;;;;;;0.38;0.28;;;;;;;;;;5023317;28;20054;-72
2022/07/26 14:02:55;;;;;;;0.82;0.60;;;;;;;;;;5019203;28;20049;-74
2022/07/26 14:05:24;;;;;;;0.77;0.47;;;;;;;;;;5025196;28;20132;-75
2022/07/26 14:07:53;;;;;;;1.20;0.65;;;;;;;;;;5025300;28;20053;-76
2022/07/26 14:10:22;;;;;;;0.75;0.57;;;;;;;;;;5027832;28;20137;-74
2022/07/26 14:12:51;;;;;;;0.40;0.40;;;;;;;;;;5020267;28;20052;-72
2022/07/26 14:15:21;;;;;;;1.48;0.40;;;;;;;;;;5024542;28;20045;-73
2022/07/26 14:17:51;;;;;;;1.08;0.57;;;;;;;;;;5027771;28;20387;-73
2022/07/26 14:20:20;;;;;;;1.13;0.80;;;;;;;;;;5024761;28;20144;-75
2022/07/26 14:22:52;;;;;;;0.43;0.40;;;;;;;;;;5023023;28;20054;-73
2022/07/26 14:25:21;;;;;;;0.90;0.47;;;;;;;;;;5022005;28;20456;-74
2022/07/26 14:27:49;;;;;;;0.38;0.30;;;;;;;;;;5026503;28;20053;-75
2022/07/26 14:30:18;;;;;;;0.55;0.30;;;;;;;;;;5024942;28;20053;-76
2022/07/26 14:32:48;;;;;;;0.45;0.32;;;;;;;;;;5031369;28;20464;-75
2022/07/26 14:35:17;;;;;;;0.28;0.28;;;;;;;;;;5027681;28;20049;-77
2022/07/26 14:37:45;;;;;;;0.85;0.60;;;;;;;;;;5029684;28;20060;-73
2022/07/26 14:40:15;;;;;;;0.60;0.55;;;;;;;;;;5029557;28;20056;-73
2022/07/26 14:42:44;;;;;;;0.52;0.52;;;;;;;;;;5026266;28;20050;-73
2022/07/26 14:45:13;;;;;;;0.32;0.32;;;;;;;;;;5026825;28;20049;-73
2022/07/26 14:47:42;;;;;;;1.15;0.60;;;;;;;;;;5024980;28;20398;-73
2022/07/26 14:50:13;;;;;;;0.77;0.60;;;;;;;;;;5027763;28;20099;-74
2022/07/26 14:52:43;;;;;;;0.43;0.38;;;;;;;;;;5029223;28;20533;-73
2022/07/26 14:55:12;;;;;;;0.52;0.45;;;;;;;;;;5027197;28;20080;-73
2022/07/26 14:57:41;;;;;;;0.55;0.55;;;;;;;;;;5021884;28;20073;-73
2022/07/26 15:00:11;;;;;;;1.73;0.77;;;;;;;;;;5025200;28;21263;-72
2022/07/26 15:02:40;;;;;;;1.08;0.60;;;;;;;;;;5027476;28;20041;-73
2022/07/26 15:05:10;;;;;;;0.80;0.43;;;;;;;;;;5029027;28;20056;-73
2022/07/26 15:07:40;;;;;;;0.70;0.40;;;;;;;;;;5025307;28;20053;-73
2022/07/26 15:10:09;;;;;;;0.30;0.30;;;;;;;;;;5027831;28;20525;-73
2022/07/26 15:12:38;;;;;;;0.73;0.47;;;;;;;;;;5029023;28;20111;-72
2022/07/26 15:15:07;;;;;;;0.70;0.50;;;;;;;;;;5029504;28;20183;-72
2022/07/26 15:17:36;;;;;;;0.75;0.65;;;;;;;;;;5030049;28;20670;-73
2022/07/26 15:20:05;;;;;;;1.27;1.10;;;;;;;;;;5022741;28;20068;-73
2022/07/26 15:22:34;;;;;;;0.35;0.35;;;;;;;;;;5028942;28;20477;-73
2022/07/26 15:25:04;;;;;;;0.77;0.45;;;;;;;;;;5026275;28;20571;-73
2022/07/26 15:27:32;;;;;;;2.05;0.65;;;;;;;;;;5027668;28;20520;-75
2022/07/26 15:30:01;;;;;;;1.85;0.88;;;;;;;;;;5022975;28;20049;-73
2022/07/26 15:32:35;;;;;;;0.67;0.60;;;;;;;;;;5028352;28;20045;-73
2022/07/26 15:35:04;;;;;;;0.65;0.43;;;;;;;;;;5022558;28;20055;-73
2022/07/26 15:37:32;;;;;;;1.77;0.50;;;;;;;;;;5023472;28;20077;-73
2022/07/26 15:40:01;;;;;;;0.38;0.25;;;;;;;;;;5017117;28;20144;-74
2022/07/26 15:42:32;;;;;;;1.27;0.68;;;;;;;;;;5012951;28;20061;-75
2022/07/26 15:45:00;;;;;;;0.63;0.30;;;;;;;;;;5022978;28;20560;-74
2022/07/26 15:47:36;;;;;;;0.90;0.63;;;;;;;;;;5022115;28;20045;-73
2022/07/26 15:50:22;;;;;;;0.88;0.68;;;;;;;;;;5026973;28;20050;-75
2022/07/26 15:52:51;;;;;;;0.80;0.50;;;;;;;;;;5025348;28;20376;-76
2022/07/26 15:55:19;;;;;;;0.70;0.40;;;;;;;;;;5017645;28;20129;-74
2022/07/26 15:57:49;;;;;;;0.40;0.35;;;;;;;;;;5025259;28;20435;-75
2022/07/26 16:00:18;;;;;;;0.68;0.43;;;;;;;;;;5028879;28;20061;-75
2022/07/26 16:02:46;;;;;;;0.50;0.50;;;;;;;;;;5027401;28;20594;-74
2022/07/26 16:05:15;;;;;;;0.88;0.70;;;;;;;;;;5024496;28;20049;-73
2022/07/26 16:07:44;;;;;;;3.83;0.50;;;;;;;;;;5024607;28;20053;-72
2022/07/26 16:10:15;;;;;;;1.13;0.75;;;;;;;;;;5025408;28;20695;-77
2022/07/26 16:12:43;;;;;;;0.75;0.52;;;;;;;;;;5024386;28;21512;-73
2022/07/26 16:15:14;;;;;;;0.60;0.40;;;;;;;;;;5023931;28;20087;-72
2022/07/26 16:17:42;;;;;;;0.70;0.40;;;;;;;;;;5027732;28;20045;-72
2022/07/26 16:20:11;;;;;;;0.30;0.30;;;;;;;;;;5026981;28;20073;-75
2022/07/26 16:22:40;;;;;;;0.90;0.55;;;;;;;;;;5017362;28;20127;-75
2022/07/26 16:25:11;;;;;;;0.82;0.70;;;;;;;;;;5020189;28;20045;-74
2022/07/26 16:27:40;;;;;;;0.88;0.38;;;;;;;;;;5027681;28;20049;-72
2022/07/26 16:30:10;;;;;;;0.20;0.20;;;;;;;;;;5014559;28;20062;-74
2022/07/26 16:32:39;;;;;;;1.25;0.60;;;;;;;;;;5027630;28;20061;-73
2022/07/26 16:35:08;;;;;;;0.50;0.38;;;;;;;;;;5023965;28;20423;-73
2022/07/26 16:37:36;;;;;;;0.43;0.35;;;;;;;;;;5017524;28;20054;-74
2022/07/26 16:40:06;;;;;;;1.27;0.77;;;;;;;;;;5027270;28;20045;-73
2022/07/26 16:42:34;;;;;;;3.25;0.88;;;;;;;;;;5026322;28;20057;-75
2022/07/26 16:45:03;;;;;;;1.63;0.57;;;;;;;;;;5021501;28;20132;-74
2022/07/26 16:47:31;;;;;;;0.85;0.50;;;;;;;;;;5022725;28;20049;-73
2022/07/26 16:50:01;;;;;;;0.52;0.40;;;;;;;;;;5024288;28;20533;-74
2022/07/26 16:52:30;;;;;;;0.50;0.50;;;;;;;;;;5025111;28;20084;-73
2022/07/26 16:54:58;;;;;;;1.35;1.25;;;;;;;;;;5023930;28;20081;-73
2022/07/26 16:57:27;;;;;;;0.60;0.60;;;;;;;;;;5028888;28;20085;-73
2022/07/26 16:59:56;;;;;;;0.38;0.32;;;;;;;;;;5015427;28;20137;-74
2022/07/26 17:02:24;;;;;;;0.95;0.50;;;;;;;;;;5021831;28;20454;-73
2022/07/26 17:04:56;;;;;;;1.02;0.75;;;;;;;;;;5014795;28;20100;-72
2022/07/26 17:07:25;;;;;;;2.95;0.77;;;;;;;;;;5016406;28;20076;-73
2022/07/26 17:09:54;;;;;;;0.75;0.63;;;;;;;;;;5020329;28;20049;-74
2022/07/26 17:12:24;;;;;;;0.75;0.60;;;;;;;;;;5021596;28;20144;-75
2022/07/26 17:14:52;;;;;;;0.75;0.60;;;;;;;;;;5016512;28;20103;-73
2022/07/26 17:17:21;;;;;;;0.50;0.50;;;;;;;;;;5018950;28;20049;-72
2022/07/26 17:19:49;;;;;;;1.02;0.50;;;;;;;;;;5020522;28;20049;-73
2022/07/26 17:22:18;;;;;;;1.20;0.73;;;;;;;;;;5017049;28;20054;-77
2022/07/26 17:24:48;;;;;;;0.85;0.80;;;;;;;;;;5022439;28;20481;-75
2022/07/26 17:27:17;;;;;;;0.30;0.28;;;;;;;;;;5020201;28;20044;-75
2022/07/26 17:29:46;;;;;;;1.50;0.77;;;;;;;;;;5014683;28;20385;-70
2022/07/26 17:32:15;;;;;;;0.50;0.40;;;;;;;;;;5025675;28;20481;-74
2022/07/26 17:34:43;;;;;;;0.77;0.47;;;;;;;;;;5026350;28;20073;-77
2022/07/26 17:37:11;;;;;;;0.40;0.40;;;;;;;;;;5017818;28;20045;-72
2022/07/26 17:39:41;;;;;;;0.75;0.55;;;;;;;;;;5023173;28;20076;-72
2022/07/26 17:42:22;;;;;;;0.95;0.60;;;;;;;;;;5021371;28;20085;-73
2022/07/26 17:44:50;;;;;;;1.13;0.73;;;;;;;;;;5021443;28;20065;-73
2022/07/26 17:47:19;;;;;;;2.40;0.52;;;;;;;;;;5027518;28;20137;-74
2022/07/26 17:49:58;;;;;;;1.63;0.90;;;;;;;;;;5013652;28;20049;-74
2022/07/26 17:52:47;;;;;;;0.80;0.28;;;;;;;;;;5027024;28;20057;-73
2022/07/26 17:55:17;;;;;;;1.02;0.90;;;;;;;;;;5022206;28;20045;-72
2022/07/26 17:57:47;;;;;;;1.27;0.80;;;;;;;;;;5027060;28;20124;-72
2022/07/26 18:00:18;;;;;;;1.45;0.70;;;;;;;;;;5030640;28;20486;-72
2022/07/26 18:02:46;;;;;;;2.20;0.60;;;;;;;;;;5030198;28;20088;-73
2022/07/26 18:05:15;;;;;;;1.15;1.08;;;;;;;;;;5022047;28;20089;-77
2022/07/26 18:07:44;;;;;;;1.77;0.70;;;;;;;;;;5029543;28;20490;-73
2022/07/26 18:10:13;;;;;;;0.73;0.52;;;;;;;;;;5023497;28;20084;-75
2022/07/26 18:12:41;;;;;;;1.20;0.70;;;;;;;;;;5012035;28;20057;-74
2022/07/26 18:15:12;;;;;;;0.68;0.68;;;;;;;;;;5019767;28;20049;-73
2022/07/26 18:17:41;;;;;;;0.52;0.40;;;;;;;;;;5025376;28;20517;-75
2022/07/26 18:20:10;;;;;;;0.47;0.35;;;;;;;;;;5027475;28;20087;-75
2022/07/26 18:22:38;;;;;;;0.40;0.32;;;;;;;;;;5027834;28;20419;-73
2022/07/26 18:25:07;;;;;;;1.00;0.52;;;;;;;;;;5017312;28;20148;-73
2022/07/26 18:27:36;;;;;;;0.57;0.57;;;;;;;;;;5022621;28;20139;-75
2022/07/26 18:30:04;;;;;;;0.60;0.60;;;;;;;;;;5025256;28;20549;-74
2022/07/26 18:32:35;;;;;;;1.17;0.77;;;;;;;;;;5020260;28;20054;-75
2022/07/26 18:35:04;;;;;;;2.72;0.75;;;;;;;;;;5021827;28;20038;-74
2022/07/26 18:37:33;;;;;;;1.08;0.80;;;;;;;;;;5022347;28;20068;-76
2022/07/26 18:40:01;;;;;;;2.83;1.05;;;;;;;;;;5019668;28;20081;-75
2022/07/26 18:42:30;;;;;;;1.30;0.70;;;;;;;;;;5025527;28;20115;-74
2022/07/26 18:44:58;;;;;;;0.43;0.40;;;;;;;;;;5015659;28;20593;-76
2022/07/26 18:47:27;;;;;;;0.50;0.50;;;;;;;;;;5018084;28;20053;-76
2022/07/26 18:49:57;;;;;;;0.47;0.45;;;;;;;;;;5018218;28;20124;-76
2022/07/26 18:52:26;;;;;;;0.80;0.50;;;;;;;;;;5018852;28;20046;-75
2022/07/26 18:55:00;;;;;;;0.30;0.30;;;;;;;;;;5019426;28;20140;-75
2022/07/26 18:57:29;;;;;;;0.50;0.47;;;;;;;;;;5026815;28;20384;-75
2022/07/26 18:59:57;;;;;;;1.48;1.00;;;;;;;;;;5024502;28;20045;-74
2022/07/26 19:02:26;;;;;;;0.40;0.40;;;;;;;;;;5019976;28;20083;-74
2022/07/26 19:04:54;;;;;;;1.60;0.73;;;;;;;;;;5022487;28;20060;-74
2022/07/26 19:07:24;;;;;;;0.55;0.45;;;;;;;;;;5021593;28;20157;-75
2022/07/26 19:09:52;;;;;;;2.53;0.82;;;;;;;;;;5021714;28;20087;-74
2022/07/26 19:12:26;;;;;;;0.55;0.50;;;;;;;;;;5023379;28;20085;-76
2022/07/26 19:14:55;;;;;;;1.67;1.00;;;;;;;;;;5024845;28;20552;-75
2022/07/26 19:17:23;;;;;;;2.63;1.08;;;;;;;;;;5016633;28;20046;-77
2022/07/26 19:19:51;;;;;;;1.73;0.93;;;;;;;;;;5019636;28;20084;-73
2022/07/26 19:22:21;;;;;;;6.53;1.23;;;;;;;;;;5023996;28;20072;-74
2022/07/26 19:24:51;;;;;;;1.73;0.90;;;;;;;;;;5016240;28;20081;-76
2022/07/26 19:27:20;;;;;;;2.13;1.20;;;;;;;;;;5018616;28;20061;-76
2022/07/26 19:29:48;;;;;;;1.40;0.80;;;;;;;;;;5017936;28;20160;-76
2022/07/26 19:32:17;;;;;;;1.70;1.30;;;;;;;;;;5019083;28;20136;-76
2022/07/26 19:34:45;;;;;;;5.88;0.88;;;;;;;;;;5021029;28;20085;-74
2022/07/26 19:37:19;;;;;;;0.98;0.65;;;;;;;;;;5018588;28;20140;-74
2022/07/26 19:39:48;;;;;;;0.45;0.40;;;;;;;;;;5015451;28;20045;-77
2022/07/26 19:42:19;;;;;;;0.32;0.30;;;;;;;;;;5020959;28;20103;-76
2022/07/26 19:44:49;;;;;;;1.13;0.85;;;;;;;;;;5016724;28;20075;-78
2022/07/26 19:47:17;;;;;;;0.30;0.30;;;;;;;;;;5021261;28;20049;-78